createdAt,value
2018-07-09T00:00:28.507Z,99662.00
2018-07-09T00:02:32.326Z,99660.00
2018-07-09T00:04:35.811Z,99658.00
2018-07-09T00:06:39.643Z,99658.00
2018-07-09T00:08:43.600Z,99662.00
2018-07-09T00:10:58.541Z,99650.00
2018-07-09T00:13:02.365Z,99652.00
2018-07-09T00:15:06.597Z,99651.00
2018-07-09T00:17:13.249Z,99648.00
2018-07-09T00:19:18.915Z,99649.00
2018-07-09T00:21:25.319Z,99649.00
2018-07-09T00:23:28.867Z,99649.00
2018-07-09T00:25:32.271Z,99646.00
2018-07-09T00:27:36.468Z,99647.00
2018-07-09T00:29:40.228Z,99646.00
2018-07-09T00:31:43.864Z,99642.00
2018-07-09T00:33:47.678Z,99648.00
2018-07-09T00:35:51.243Z,99638.00
2018-07-09T00:37:54.719Z,99644.00
2018-07-09T00:39:58.907Z,99641.00
2018-07-09T00:42:02.935Z,99639.00
2018-07-09T00:44:06.687Z,99638.00
2018-07-09T00:46:14.994Z,99648.00
2018-07-09T00:48:22.942Z,99653.00
2018-07-09T00:50:26.619Z,99653.00
2018-07-09T00:52:30.522Z,99648.00
2018-07-09T00:54:34.133Z,99641.00
2018-07-09T00:56:37.635Z,99642.00
2018-07-09T00:58:41.551Z,99634.00
2018-07-09T01:00:45.032Z,99635.00
2018-07-09T01:02:48.647Z,99634.00
2018-07-09T01:04:52.147Z,99632.00
2018-07-09T01:06:55.848Z,99638.00
2018-07-09T01:08:59.337Z,99634.00
2018-07-09T01:11:16.787Z,99641.00
2018-07-09T01:13:44.952Z,99638.00
2018-07-09T01:15:48.352Z,99641.00
2018-07-09T01:17:52.052Z,99642.00
2018-07-09T01:19:55.835Z,99643.00
2018-07-09T01:21:59.663Z,99636.00
2018-07-09T01:24:03.751Z,99636.00
2018-07-09T01:26:12.316Z,99634.00
2018-07-09T01:28:18.186Z,99628.00
2018-07-09T01:30:22.420Z,99641.00
2018-07-09T01:32:26.032Z,99638.00
2018-07-09T01:34:29.561Z,99632.00
2018-07-09T01:36:33.460Z,99634.00
2018-07-09T01:38:37.209Z,99633.00
2018-07-09T01:40:41.359Z,99631.00
2018-07-09T01:42:45.445Z,99627.00
2018-07-09T01:44:49.218Z,99630.00
2018-07-09T01:46:52.925Z,99631.00
2018-07-09T01:48:57.134Z,99631.00
2018-07-09T01:51:00.666Z,99631.00
2018-07-09T01:53:05.084Z,99628.00
2018-07-09T01:55:13.377Z,99633.00
2018-07-09T01:57:19.908Z,99626.00
2018-07-09T01:59:24.006Z,99625.00
2018-07-09T02:01:28.054Z,99623.00
2018-07-09T02:03:31.870Z,99619.00
2018-07-09T02:05:35.471Z,99628.00
2018-07-09T02:07:39.642Z,99619.00
2018-07-09T02:09:43.393Z,99620.00
2018-07-09T02:11:46.922Z,99615.00
2018-07-09T02:13:51.224Z,99618.00
2018-07-09T02:15:54.797Z,99617.00
2018-07-09T02:17:58.333Z,99620.00
2018-07-09T02:20:01.943Z,99621.00
2018-07-09T02:22:07.916Z,99617.00
2018-07-09T02:24:15.263Z,99614.00
2018-07-09T02:26:23.001Z,99618.00
2018-07-09T02:28:26.564Z,99620.00
2018-07-09T02:30:30.133Z,99625.00
2018-07-09T02:32:33.589Z,99619.00
2018-07-09T02:34:37.399Z,99624.00
2018-07-09T02:36:41.308Z,99625.00
2018-07-09T02:38:46.209Z,99624.00
2018-07-09T02:40:52.157Z,99626.00
2018-07-09T02:42:57.693Z,99625.00
2018-07-09T02:45:03.411Z,99623.00
2018-07-09T02:47:09.574Z,99618.00
2018-07-09T02:49:15.056Z,99616.00
2018-07-09T02:51:19.996Z,99620.00
2018-07-09T02:53:24.667Z,99624.00
2018-07-09T02:55:28.350Z,99620.00
2018-07-09T02:57:31.975Z,99618.00
2018-07-09T02:59:35.414Z,99621.00
2018-07-09T03:01:38.794Z,99630.00
2018-07-09T03:03:42.541Z,99634.00
2018-07-09T03:05:46.649Z,99629.00
2018-07-09T03:07:50.347Z,99632.00
2018-07-09T03:09:53.859Z,99635.00
2018-07-09T03:11:57.621Z,99637.00
2018-07-09T03:14:01.095Z,99636.00
2018-07-09T03:16:04.771Z,99636.00
2018-07-09T03:18:12.757Z,99644.00
2018-07-09T03:20:17.503Z,99643.00
2018-07-09T03:22:24.387Z,99643.00
2018-07-09T03:24:28.869Z,99642.00
2018-07-09T03:26:32.335Z,99645.00
2018-07-09T03:28:37.656Z,99648.00
2018-07-09T03:30:41.409Z,99649.00
2018-07-09T03:32:46.009Z,99653.00
2018-07-09T03:34:49.682Z,99654.00
2018-07-09T03:36:54.107Z,99653.00
2018-07-09T03:38:57.968Z,99650.00
2018-07-09T03:41:01.972Z,99649.00
2018-07-09T03:43:07.056Z,99649.00
2018-07-09T03:45:13.699Z,99653.00
2018-07-09T03:47:22.297Z,99654.00
2018-07-09T03:49:25.664Z,99656.00
2018-07-09T03:51:29.551Z,99644.00
2018-07-09T03:53:32.937Z,99652.00
2018-07-09T03:55:36.608Z,99652.00
2018-07-09T03:57:40.579Z,99651.00
2018-07-09T03:59:44.261Z,99657.00
2018-07-09T04:01:47.924Z,99655.00
2018-07-09T04:03:51.479Z,99650.00
2018-07-09T04:05:55.047Z,99649.00
2018-07-09T04:07:58.745Z,99651.00
2018-07-09T04:10:02.594Z,99657.00
2018-07-09T04:12:07.475Z,99656.00
2018-07-09T04:14:14.941Z,99653.00
2018-07-09T04:16:21.416Z,99654.00
2018-07-09T04:18:26.329Z,99660.00
2018-07-09T04:20:30.631Z,99660.00
2018-07-09T04:22:34.119Z,99660.00
2018-07-09T04:24:37.604Z,99660.00
2018-07-09T04:26:41.191Z,99661.00
2018-07-09T04:28:44.626Z,99667.00
2018-07-09T04:30:48.938Z,99658.00
2018-07-09T04:32:52.376Z,99664.00
2018-07-09T04:34:56.143Z,99662.00
2018-07-09T04:37:00.112Z,99675.00
2018-07-09T04:39:06.200Z,99662.00
2018-07-09T04:41:13.231Z,99663.00
2018-07-09T04:43:20.316Z,99665.00
2018-07-09T04:45:25.156Z,99668.00
2018-07-09T04:47:28.808Z,99670.00
2018-07-09T04:49:32.792Z,99667.00
2018-07-09T04:51:36.175Z,99666.00
2018-07-09T04:53:39.775Z,99663.00
2018-07-09T04:55:43.279Z,99670.00
2018-07-09T04:57:47.527Z,99667.00
2018-07-09T04:59:51.474Z,99664.00
2018-07-09T05:01:55.382Z,99660.00
2018-07-09T05:03:59.217Z,99658.00
2018-07-09T05:06:02.716Z,99664.00
2018-07-09T05:08:06.666Z,99661.00
2018-07-09T05:10:13.889Z,99664.00
2018-07-09T05:12:20.065Z,99654.00
2018-07-09T05:14:24.362Z,99654.00
2018-07-09T05:16:27.755Z,99651.00
2018-07-09T05:18:31.252Z,99651.00
2018-07-09T05:20:35.126Z,99645.00
2018-07-09T05:22:39.170Z,99648.00
2018-07-09T05:24:42.797Z,99639.00
2018-07-09T05:26:47.005Z,99639.00
2018-07-09T05:28:50.973Z,99642.00
2018-07-09T05:30:55.211Z,99647.00
2018-07-09T05:32:59.644Z,99647.00
2018-07-09T05:35:03.210Z,99651.00
2018-07-09T05:37:10.272Z,99652.00
2018-07-09T05:39:16.990Z,99653.00
2018-07-09T05:41:23.675Z,99649.00
2018-07-09T05:43:27.442Z,99650.00
2018-07-09T05:45:31.730Z,99652.00
2018-07-09T05:47:36.745Z,99646.00
2018-07-09T05:49:40.849Z,99646.00
2018-07-09T05:51:45.344Z,99651.00
2018-07-09T05:53:49.486Z,99650.00
2018-07-09T05:55:53.617Z,99651.00
2018-07-09T05:57:57.674Z,99645.00
2018-07-09T06:00:01.092Z,99647.00
2018-07-09T06:02:06.087Z,99644.00
2018-07-09T06:04:13.323Z,99641.00
2018-07-09T06:06:18.520Z,99640.00
2018-07-09T06:08:28.718Z,99643.00
2018-07-09T06:10:32.919Z,99639.00
2018-07-09T06:12:36.780Z,99637.00
2018-07-09T06:14:40.551Z,99638.00
2018-07-09T06:16:44.620Z,99635.00
2018-07-09T06:18:48.358Z,99634.00
2018-07-09T06:20:52.073Z,99636.00
2018-07-09T06:22:55.798Z,99637.00
2018-07-09T06:24:59.694Z,99632.00
2018-07-09T06:27:03.663Z,99635.00
2018-07-09T06:29:11.354Z,99638.00
2018-07-09T06:31:22.357Z,99627.00
2018-07-09T06:33:26.156Z,99637.00
2018-07-09T06:35:30.244Z,99639.00
2018-07-09T06:37:33.840Z,99649.00
2018-07-09T06:39:37.510Z,99642.00
2018-07-09T06:41:41.043Z,99645.00
2018-07-09T06:43:45.162Z,99647.00
2018-07-09T06:45:48.872Z,99649.00
2018-07-09T06:47:53.727Z,99644.00
2018-07-09T06:49:57.617Z,99638.00
2018-07-09T06:52:01.719Z,99642.00
2018-07-09T06:54:06.130Z,99655.00
2018-07-09T06:56:13.953Z,99660.00
2018-07-09T06:58:19.834Z,99652.00
2018-07-09T07:00:27.278Z,99642.00
2018-07-09T07:02:31.020Z,99638.00
2018-07-09T07:04:34.614Z,99662.00
2018-07-09T07:06:38.313Z,99651.00
2018-07-09T07:08:42.243Z,99659.00
2018-07-09T07:10:46.235Z,99657.00
2018-07-09T07:12:50.909Z,99649.00
2018-07-09T07:14:54.787Z,99646.00
2018-07-09T07:16:58.567Z,99644.00
2018-07-09T07:19:03.373Z,99649.00
2018-07-09T07:21:10.581Z,99655.00
2018-07-09T07:23:15.932Z,99646.00
2018-07-09T07:25:22.104Z,99640.00
2018-07-09T07:27:25.746Z,99647.00
2018-07-09T07:29:29.406Z,99642.00
2018-07-09T07:31:33.954Z,99633.00
2018-07-09T07:33:37.545Z,99641.00
2018-07-09T07:35:40.924Z,99651.00
2018-07-09T07:37:44.740Z,99649.00
2018-07-09T07:39:48.192Z,99649.00
2018-07-09T07:41:51.670Z,99651.00
2018-07-09T07:43:55.697Z,99637.00
2018-07-09T07:46:00.532Z,99638.00
2018-07-09T07:48:05.000Z,99629.00
2018-07-09T07:50:13.456Z,99644.00
2018-07-09T07:52:18.398Z,99646.00
2018-07-09T07:54:25.530Z,99642.00
2018-07-09T07:56:29.604Z,99645.00
2018-07-09T07:58:34.741Z,99645.00
2018-07-09T08:00:39.977Z,99645.00
2018-07-09T08:02:46.388Z,99642.00
2018-07-09T08:04:50.776Z,99629.00
2018-07-09T08:06:55.163Z,99623.00
2018-07-09T08:08:59.493Z,99635.00
2018-07-09T08:11:11.068Z,99645.00
2018-07-09T08:13:27.982Z,99638.00
2018-07-09T08:15:20.587Z,99643.00
2018-07-09T08:17:24.569Z,99643.00
2018-07-09T08:19:28.320Z,99638.00
2018-07-09T08:21:32.407Z,99633.00
2018-07-09T08:23:35.970Z,99643.00
2018-07-09T08:25:40.029Z,99627.00
2018-07-09T08:27:44.685Z,99639.00
2018-07-09T08:29:49.801Z,99638.00
2018-07-09T08:31:53.326Z,99651.00
2018-07-09T08:33:57.478Z,99642.00
2018-07-09T08:36:01.320Z,99641.00
2018-07-09T08:38:07.066Z,99623.00
2018-07-09T08:40:13.916Z,99610.00
2018-07-09T08:42:20.475Z,99613.00
2018-07-09T08:44:26.476Z,99618.00
2018-07-09T08:46:30.205Z,99613.00
2018-07-09T08:48:33.783Z,99613.00
2018-07-09T08:50:41.099Z,99618.00
2018-07-09T08:52:50.506Z,99629.00
2018-07-09T08:54:57.049Z,99624.00
2018-07-09T08:57:01.221Z,99616.00
2018-07-09T08:59:10.888Z,99620.00
2018-07-09T09:01:16.928Z,99609.00
2018-07-09T09:03:22.380Z,99621.00
2018-07-09T09:05:26.299Z,99610.00
2018-07-09T09:07:29.857Z,99614.00
2018-07-09T09:09:33.652Z,99614.00
2018-07-09T09:11:37.921Z,99606.00
2018-07-09T09:13:41.792Z,99611.00
2018-07-09T09:15:45.413Z,99599.00
2018-07-09T09:17:48.923Z,99603.00
2018-07-09T09:19:52.459Z,99607.00
2018-07-09T09:21:55.912Z,99605.00
2018-07-09T09:24:00.817Z,99616.00
2018-07-09T09:26:05.946Z,99610.00
2018-07-09T09:28:13.703Z,99595.00
2018-07-09T09:30:20.794Z,99609.00
2018-07-09T09:32:25.161Z,99594.00
2018-07-09T09:34:28.611Z,99593.00
2018-07-09T09:36:32.471Z,99606.00
2018-07-09T09:38:36.063Z,99602.00
2018-07-09T09:40:39.677Z,99587.00
2018-07-09T09:42:45.062Z,99587.00
2018-07-09T09:44:48.975Z,99591.00
2018-07-09T09:46:52.471Z,99597.00
2018-07-09T09:48:56.740Z,99591.00
2018-07-09T09:51:00.265Z,99584.00
2018-07-09T09:55:14.862Z,99575.00
2018-07-09T09:57:20.283Z,99574.00
2018-07-09T09:59:25.892Z,99580.00
2018-07-09T10:01:30.030Z,99569.00
2018-07-09T10:03:33.874Z,99585.00
2018-07-09T10:05:37.489Z,99565.00
2018-07-09T10:09:07.042Z,99562.00
2018-07-09T10:11:13.815Z,99560.00
2018-07-09T10:13:23.492Z,99564.00
2018-07-09T10:15:27.113Z,99566.00
2018-07-09T10:17:30.808Z,99561.00
2018-07-09T10:19:34.628Z,99560.00
2018-07-09T10:21:38.393Z,99555.00
2018-07-09T10:23:41.932Z,99564.00
2018-07-09T10:25:45.665Z,99547.00
2018-07-09T10:27:49.293Z,99544.00
2018-07-09T10:29:52.917Z,99536.00
2018-07-09T10:31:56.760Z,99545.00
2018-07-09T10:34:00.232Z,99547.00
2018-07-09T10:36:04.202Z,99550.00
2018-07-09T10:38:11.281Z,99550.00
2018-07-09T10:40:17.434Z,99565.00
2018-07-09T10:42:23.039Z,99544.00
2018-07-09T10:44:26.835Z,99529.00
2018-07-09T10:46:30.884Z,99535.00
2018-07-09T10:48:34.683Z,99530.00
2018-07-09T10:50:39.245Z,99518.00
2018-07-09T10:52:42.876Z,99529.00
2018-07-09T10:54:46.618Z,99523.00
2018-07-09T10:56:50.842Z,99517.00
2018-07-09T10:58:54.554Z,99535.00
2018-07-09T11:00:58.689Z,99551.00
2018-07-09T11:03:02.271Z,99524.00
2018-07-09T11:05:06.686Z,99515.00
2018-07-09T11:07:11.015Z,99515.00
2018-07-09T11:09:21.420Z,99519.00
2018-07-09T11:11:25.182Z,99532.00
2018-07-09T11:13:28.795Z,99513.00
2018-07-09T11:15:32.539Z,99528.00
2018-07-09T11:17:36.139Z,99514.00
2018-07-09T11:19:39.672Z,99510.00
2018-07-09T11:21:43.564Z,99516.00
2018-07-09T11:23:47.181Z,99515.00
2018-07-09T11:25:50.696Z,99505.00
2018-07-09T11:27:54.261Z,99511.00
2018-07-09T11:29:57.997Z,99492.00
2018-07-09T11:32:01.741Z,99518.00
2018-07-09T11:34:07.446Z,99497.00
2018-07-09T11:36:13.816Z,99503.00
2018-07-09T11:38:19.190Z,99496.00
2018-07-09T11:40:24.314Z,99493.00
2018-07-09T11:42:27.904Z,99495.00
2018-07-09T11:44:31.631Z,99493.00
2018-07-09T11:46:36.327Z,99485.00
2018-07-09T11:48:40.478Z,99492.00
2018-07-09T11:50:43.971Z,99472.00
2018-07-09T11:52:48.061Z,99481.00
2018-07-09T11:54:51.652Z,99476.00
2018-07-09T11:56:55.274Z,99486.00
2018-07-09T11:59:00.184Z,99481.00
2018-07-09T12:01:04.269Z,99487.00
2018-07-09T12:03:10.450Z,99475.00
2018-07-09T12:05:17.967Z,99457.00
2018-07-09T12:07:25.292Z,99480.00
2018-07-09T12:09:29.056Z,99462.00
2018-07-09T12:11:32.974Z,99472.00
2018-07-09T12:13:36.650Z,99475.00
2018-07-09T12:15:40.133Z,99488.00
2018-07-09T12:17:44.338Z,99483.00
2018-07-09T12:19:47.980Z,99468.00
2018-07-09T12:21:51.818Z,99470.00
2018-07-09T12:23:55.365Z,99469.00
2018-07-09T12:25:59.091Z,99469.00
2018-07-09T12:28:02.705Z,99473.00
2018-07-09T12:30:07.694Z,99481.00
2018-07-09T12:32:14.809Z,99480.00
2018-07-09T12:34:20.328Z,99470.00
2018-07-09T12:36:25.145Z,99477.00
2018-07-09T12:38:29.369Z,99451.00
2018-07-09T12:40:33.316Z,99445.00
2018-07-09T12:42:37.101Z,99463.00
2018-07-09T12:44:40.748Z,99457.00
2018-07-09T12:46:44.521Z,99468.00
2018-07-09T12:48:47.944Z,99457.00
2018-07-09T12:50:51.428Z,99470.00
2018-07-09T12:52:54.900Z,99473.00
2018-07-09T12:54:58.739Z,99461.00
2018-07-09T12:57:02.969Z,99458.00
2018-07-09T12:59:08.900Z,99456.00
2018-07-09T13:01:15.951Z,99476.00
2018-07-09T13:03:21.033Z,99472.00
2018-07-09T13:05:25.963Z,99465.00
2018-07-09T13:07:30.419Z,99454.00
2018-07-09T13:09:34.087Z,99463.00
2018-07-09T13:11:37.660Z,99463.00
2018-07-09T13:13:41.987Z,99473.00
2018-07-09T13:15:45.458Z,99460.00
2018-07-09T13:17:49.191Z,99467.00
2018-07-09T13:19:53.120Z,99461.00
2018-07-09T13:21:56.811Z,99435.00
2018-07-09T13:26:13.371Z,99462.00
2018-07-09T13:28:20.508Z,99455.00
2018-07-09T13:30:26.361Z,99454.00
2018-07-09T13:32:30.611Z,99451.00
2018-07-09T13:34:34.529Z,99468.00
2018-07-09T13:36:40.433Z,99463.00
2018-07-09T13:38:44.168Z,99444.00
2018-07-09T13:40:48.012Z,99470.00
2018-07-09T13:42:52.902Z,99444.00
2018-07-09T13:44:57.114Z,99457.00
2018-07-09T13:47:00.862Z,99438.00
2018-07-09T13:49:05.495Z,99377.00
2018-07-09T13:51:12.608Z,99375.00
2018-07-09T13:53:17.424Z,99370.00
2018-07-09T13:55:22.674Z,99413.00
2018-07-09T13:57:27.121Z,99374.00
2018-07-09T13:59:31.058Z,99382.00
2018-07-09T14:01:35.379Z,99366.00
2018-07-09T14:03:38.934Z,99363.00
2018-07-09T14:05:42.907Z,99361.00
2018-07-09T14:07:46.616Z,99363.00
2018-07-09T14:09:50.686Z,99360.00
2018-07-09T14:11:54.205Z,99365.00
2018-07-09T14:13:58.075Z,99383.00
2018-07-09T14:16:02.997Z,99373.00
2018-07-09T14:18:10.412Z,99371.00
2018-07-09T14:20:28.096Z,99383.00
2018-07-09T14:22:32.155Z,99368.00
2018-07-09T14:24:35.861Z,99366.00
2018-07-09T14:26:39.582Z,99378.00
2018-07-09T14:28:45.031Z,99355.00
2018-07-09T14:30:50.727Z,99371.00
2018-07-09T14:32:54.897Z,99376.00
2018-07-09T14:34:59.749Z,99375.00
2018-07-09T14:37:06.094Z,99367.00
2018-07-09T14:39:18.859Z,99367.00
2018-07-09T14:41:26.000Z,99372.00
2018-07-09T14:43:30.259Z,99395.00
2018-07-09T14:45:35.434Z,99362.00
2018-07-09T14:47:42.676Z,99371.00
2018-07-09T14:49:47.843Z,99387.00
2018-07-09T14:51:54.926Z,99385.00
2018-07-09T14:53:59.760Z,99371.00
2018-07-09T14:56:06.501Z,99387.00
2018-07-09T14:58:12.776Z,99390.00
2018-07-09T15:00:23.469Z,99361.00
2018-07-09T15:02:29.388Z,99381.00
2018-07-09T15:04:34.092Z,99350.00
2018-07-09T15:06:38.586Z,99378.00
2018-07-09T15:08:42.213Z,99375.00
2018-07-09T15:10:47.659Z,99357.00
2018-07-09T15:12:52.248Z,99374.00
2018-07-09T15:14:55.946Z,99359.00
2018-07-09T15:16:59.480Z,99386.00
2018-07-09T15:19:03.078Z,99356.00
2018-07-09T15:21:11.960Z,99345.00
2018-07-09T15:23:22.944Z,99346.00
2018-07-09T15:25:26.839Z,99387.00
2018-07-09T15:27:30.647Z,99360.00
2018-07-09T15:29:34.419Z,99368.00
2018-07-09T15:31:48.148Z,99381.00
2018-07-09T15:33:51.667Z,99375.00
2018-07-09T15:35:55.245Z,99371.00
2018-07-09T15:37:59.114Z,99361.00
2018-07-09T15:40:03.260Z,99377.00
2018-07-09T15:42:09.547Z,99384.00
2018-07-09T15:44:16.506Z,99362.00
2018-07-09T15:46:22.030Z,99359.00
2018-07-09T15:48:25.690Z,99361.00
2018-07-09T15:50:30.938Z,99371.00
2018-07-09T15:52:34.541Z,99366.00
2018-07-09T15:54:38.319Z,99373.00
2018-07-09T15:56:42.990Z,99397.00
2018-07-09T15:58:47.371Z,99387.00
2018-07-09T16:00:51.079Z,99374.00
2018-07-09T16:02:55.072Z,99368.00
2018-07-09T16:04:58.575Z,99363.00
2018-07-09T16:07:02.411Z,99374.00
2018-07-09T16:09:07.081Z,99366.00
2018-07-09T16:11:15.172Z,99369.00
2018-07-09T16:13:22.456Z,99349.00
2018-07-09T16:15:27.036Z,99342.00
2018-07-09T16:17:31.340Z,99364.00
2018-07-09T16:19:38.053Z,99354.00
2018-07-09T16:21:42.341Z,99353.00
2018-07-09T16:23:46.140Z,99344.00
2018-07-09T16:25:50.409Z,99325.00
2018-07-09T16:27:54.815Z,99346.00
2018-07-09T16:29:58.584Z,99332.00
2018-07-09T16:32:05.092Z,99316.00
2018-07-09T16:34:13.813Z,99319.00
2018-07-09T16:36:21.267Z,99331.00
2018-07-09T16:38:25.508Z,99322.00
2018-07-09T16:40:29.577Z,99312.00
2018-07-09T16:42:33.187Z,99298.00
2018-07-09T16:44:36.678Z,99300.00
2018-07-09T16:46:40.835Z,99324.00
2018-07-09T16:48:44.778Z,99301.00
2018-07-09T16:50:51.516Z,99336.00
2018-07-09T16:52:55.813Z,99304.00
2018-07-09T16:54:59.895Z,99301.00
2018-07-09T16:57:04.763Z,99311.00
2018-07-09T16:59:12.042Z,99316.00
2018-07-09T17:01:19.616Z,99308.00
2018-07-09T17:03:25.466Z,99286.00
2018-07-09T17:05:29.026Z,99318.00
2018-07-09T17:07:32.625Z,99333.00
2018-07-09T17:09:36.618Z,99319.00
2018-07-09T17:11:40.748Z,99326.00
2018-07-09T17:13:44.261Z,99320.00
2018-07-09T17:15:47.926Z,99328.00
2018-07-09T17:17:51.964Z,99327.00
2018-07-09T17:19:55.732Z,99318.00
2018-07-09T17:21:59.218Z,99319.00
2018-07-09T17:24:03.277Z,99306.00
2018-07-09T17:26:10.469Z,99302.00
2018-07-09T17:28:19.419Z,99316.00
2018-07-09T17:30:24.386Z,99305.00
2018-07-09T17:32:27.930Z,99321.00
2018-07-09T17:34:32.052Z,99329.00
2018-07-09T17:36:37.828Z,99324.00
2018-07-09T17:38:41.499Z,99328.00
2018-07-09T17:40:46.115Z,99321.00
2018-07-09T17:42:50.250Z,99315.00
2018-07-09T17:44:53.810Z,99331.00
2018-07-09T17:46:57.861Z,99323.00
2018-07-09T17:49:02.423Z,99323.00
2018-07-09T17:51:07.994Z,99319.00
2018-07-09T17:53:15.027Z,99327.00
2018-07-09T17:55:21.948Z,99317.00
2018-07-09T17:57:27.733Z,99326.00
2018-07-09T17:59:33.311Z,99311.00
2018-07-09T18:01:41.168Z,99310.00
2018-07-09T18:03:45.408Z,99312.00
2018-07-09T18:05:50.256Z,99318.00
2018-07-09T18:07:54.803Z,99305.00
2018-07-09T18:10:00.330Z,99318.00
2018-07-09T18:12:04.051Z,99303.00
2018-07-09T18:14:11.743Z,99307.00
2018-07-09T18:16:19.457Z,99308.00
2018-07-09T18:18:26.246Z,99311.00
2018-07-09T18:20:38.525Z,99307.00
2018-07-09T18:22:48.873Z,99306.00
2018-07-09T18:24:52.595Z,99311.00
2018-07-09T18:26:57.490Z,99312.00
2018-07-09T18:29:01.481Z,99318.00
2018-07-09T18:31:05.937Z,99320.00
2018-07-09T18:33:14.829Z,99320.00
2018-07-09T18:35:21.655Z,99308.00
2018-07-09T18:37:28.183Z,99316.00
2018-07-09T18:39:32.572Z,99307.00
2018-07-09T18:41:37.600Z,99307.00
2018-07-09T18:43:45.853Z,99315.00
2018-07-09T18:45:50.691Z,99306.00
2018-07-09T18:48:04.973Z,99313.00
2018-07-09T18:53:21.521Z,99304.00
2018-07-09T18:55:26.776Z,99290.00
2018-07-09T18:57:31.716Z,99284.00
2018-07-09T18:59:39.026Z,99279.00
2018-07-09T19:01:45.923Z,99274.00
2018-07-09T19:03:51.460Z,99291.00
2018-07-09T19:07:08.954Z,99284.00
2018-07-09T19:09:16.327Z,99287.00
2018-07-09T19:11:26.649Z,99290.00
2018-07-09T19:13:32.334Z,99288.00
2018-07-09T19:15:41.958Z,99279.00
2018-07-09T19:18:31.002Z,99285.00
2018-07-09T19:23:15.822Z,99284.00
2018-07-09T19:25:20.692Z,99286.00
2018-07-09T19:27:24.767Z,99280.00
2018-07-09T19:29:31.139Z,99286.00
2018-07-09T19:31:35.678Z,99280.00
2018-07-09T19:33:38.851Z,99277.00
2018-07-09T19:35:42.707Z,99289.00
2018-07-09T19:37:45.789Z,99295.00
2018-07-09T19:39:48.618Z,99284.00
2018-07-09T19:41:52.094Z,99285.00
2018-07-09T19:43:55.213Z,99291.00
2018-07-09T19:45:58.532Z,99287.00
2018-07-09T19:48:01.368Z,99279.00
2018-07-09T19:50:04.454Z,99276.00
2018-07-09T19:52:08.955Z,99281.00
2018-07-09T19:54:13.695Z,99284.00
2018-07-09T19:56:18.343Z,99276.00
2018-07-09T19:58:25.755Z,99285.00
2018-07-09T20:00:29.231Z,99281.00
2018-07-09T20:02:31.784Z,99280.00
2018-07-09T20:04:34.054Z,99285.00
2018-07-09T20:06:36.682Z,99277.00
2018-07-09T20:08:44.710Z,99279.00
2018-07-09T20:10:52.372Z,99276.00
2018-07-09T20:13:01.382Z,99278.00
2018-07-09T20:15:11.893Z,99271.00
2018-07-09T20:17:23.915Z,99279.00
2018-07-09T20:19:26.578Z,99273.00
2018-07-09T20:21:30.066Z,99271.00
2018-07-09T20:23:33.337Z,99277.00
2018-07-09T20:27:46.605Z,99279.00
2018-07-09T20:29:50.155Z,99276.00
2018-07-09T20:31:54.795Z,99281.00
2018-07-09T20:33:57.770Z,99268.00
2018-07-09T20:36:00.128Z,99273.00
2018-07-09T20:38:02.712Z,99268.00
2018-07-09T20:40:07.065Z,99276.00
2018-07-09T20:42:12.336Z,99277.00
2018-07-09T20:44:17.345Z,99281.00
2018-07-09T20:46:20.149Z,99287.00
2018-07-09T20:48:22.810Z,99279.00
2018-07-09T20:50:25.550Z,99284.00
2018-07-09T20:52:27.882Z,99284.00
2018-07-09T20:54:32.946Z,99280.00
2018-07-09T20:56:36.350Z,99281.00
2018-07-09T20:58:39.235Z,99274.00
2018-07-09T21:00:41.564Z,99278.00
2018-07-09T21:02:45.459Z,99276.00
2018-07-09T21:04:48.092Z,99278.00
2018-07-09T21:06:50.580Z,99274.00
2018-07-09T21:08:53.460Z,99277.00
2018-07-09T21:10:55.762Z,99273.00
2018-07-09T21:12:59.419Z,99273.00
2018-07-09T21:15:03.162Z,99270.00
2018-07-09T21:17:07.605Z,99275.00
2018-07-09T21:19:13.049Z,99279.00
2018-07-09T21:21:19.079Z,99278.00
2018-07-09T21:23:23.735Z,99281.00
2018-07-09T21:25:26.201Z,99283.00
2018-07-09T21:27:28.947Z,99279.00
2018-07-09T21:29:31.738Z,99281.00
2018-07-09T21:31:34.103Z,99284.00
2018-07-09T21:33:36.899Z,99275.00
2018-07-09T21:35:39.386Z,99265.00
2018-07-09T21:37:41.935Z,99267.00
2018-07-09T21:39:44.367Z,99273.00
2018-07-09T21:41:46.711Z,99275.00
2018-07-09T21:43:49.064Z,99267.00
2018-07-09T21:45:51.317Z,99263.00
2018-07-09T21:47:59.216Z,99280.00
2018-07-09T21:49:55.913Z,99271.00
2018-07-09T21:51:58.111Z,99274.00
2018-07-09T21:54:00.641Z,99270.00
2018-07-09T21:56:02.976Z,99261.00
2018-07-09T21:58:06.945Z,99264.00
2018-07-09T22:00:11.466Z,99266.00
2018-07-09T22:02:15.878Z,99262.00
2018-07-09T22:04:19.885Z,99272.00
2018-07-09T22:06:22.472Z,99280.00
2018-07-09T22:08:24.729Z,99265.00
2018-07-09T22:10:28.242Z,99265.00
2018-07-09T22:12:30.710Z,99274.00
2018-07-09T22:14:32.996Z,99266.00
2018-07-09T22:16:35.234Z,99261.00
2018-07-09T22:18:37.743Z,99270.00
2018-07-09T22:20:40.105Z,99270.00
2018-07-09T22:22:42.399Z,99262.00
2018-07-09T22:24:45.161Z,99266.00
2018-07-09T22:26:47.533Z,99262.00
2018-07-09T22:28:49.752Z,99257.00
2018-07-09T22:30:53.965Z,99248.00
2018-07-09T22:32:57.495Z,99252.00
2018-07-09T22:35:01.577Z,99253.00
2018-07-09T22:37:06.327Z,99247.00
2018-07-09T22:39:13.303Z,99248.00
2018-07-09T22:41:18.820Z,99243.00
2018-07-09T22:43:33.822Z,99242.00
2018-07-09T22:45:39.485Z,99243.00
2018-07-09T22:47:44.042Z,99247.00
2018-07-09T22:49:48.008Z,99244.00
2018-07-09T22:51:51.525Z,99242.00
2018-07-09T22:53:55.210Z,99235.00
2018-07-09T22:56:11.824Z,99232.00
2018-07-09T22:58:18.495Z,99235.00
2018-07-09T23:00:24.657Z,99238.00
2018-07-09T23:02:29.297Z,99230.00
2018-07-09T23:04:33.215Z,99234.00
2018-07-09T23:06:36.651Z,99237.00
2018-07-09T23:08:41.019Z,99236.00
2018-07-09T23:11:24.830Z,99237.00
2018-07-09T23:13:41.143Z,99231.00
2018-07-09T23:15:55.945Z,99225.00
2018-07-09T23:18:13.321Z,99228.00
2018-07-09T23:21:14.005Z,99231.00
2018-07-09T23:23:20.150Z,99231.00
2018-07-09T23:25:24.193Z,99235.00
2018-07-09T23:27:27.079Z,99243.00
2018-07-09T23:29:29.358Z,99243.00
2018-07-09T23:31:31.752Z,99242.00
2018-07-09T23:33:34.533Z,99234.00
2018-07-09T23:35:36.861Z,99230.00
2018-07-09T23:37:39.168Z,99233.00
2018-07-09T23:39:41.646Z,99239.00
2018-07-09T23:41:44.208Z,99238.00
2018-07-09T23:43:48.012Z,99235.00
2018-07-09T23:45:51.543Z,99235.00
2018-07-09T23:47:53.846Z,99241.00
2018-07-09T23:49:56.172Z,99235.00
2018-07-09T23:51:58.735Z,99233.00
2018-07-09T23:54:01.255Z,99236.00
2018-07-09T23:56:16.967Z,99237.00
2018-07-09T23:58:33.188Z,99229.00
